sensor_id;sensor_type;location;lat;lon;timestamp;temperature;humidity
4505;DHT22;2265;48.794;9.520;2023-02-28T00:01:11;0.30;98.00
4505;DHT22;2265;48.794;9.520;2023-02-28T00:03:38;0.30;98.00
4505;DHT22;2265;48.794;9.520;2023-02-28T00:06:06;0.30;98.00
4505;DHT22;2265;48.794;9.520;2023-02-28T00:08:35;0.40;98.00
4505;DHT22;2265;48.794;9.520;2023-02-28T00:11:06;0.20;98.00
4505;DHT22;2265;48.794;9.520;2023-02-28T00:13:36;0.20;98.00
4505;DHT22;2265;48.794;9.520;2023-02-28T00:16:05;0.30;98.00
4505;DHT22;2265;48.794;9.520;2023-02-28T00:18:33;0.40;98.00
4505;DHT22;2265;48.794;9.520;2023-02-28T00:21:01;0.30;98.00
4505;DHT22;2265;48.794;9.520;2023-02-28T00:23:28;0.30;98.00
4505;DHT22;2265;48.794;9.520;2023-02-28T00:25:55;0.30;98.00
4505;DHT22;2265;48.794;9.520;2023-02-28T00:28:24;0.30;98.00
4505;DHT22;2265;48.794;9.520;2023-02-28T00:30:52;0.40;98.00
4505;DHT22;2265;48.794;9.520;2023-02-28T00:33:19;0.30;98.00
4505;DHT22;2265;48.794;9.520;2023-02-28T00:35:46;0.30;98.00
4505;DHT22;2265;48.794;9.520;2023-02-28T00:38:14;0.10;98.00
4505;DHT22;2265;48.794;9.520;2023-02-28T00:40:41;0.00;98.00
4505;DHT22;2265;48.794;9.520;2023-02-28T00:43:09;0.20;98.00
4505;DHT22;2265;48.794;9.520;2023-02-28T00:45:38;0.10;98.00
4505;DHT22;2265;48.794;9.520;2023-02-28T00:48:05;0.10;98.00
4505;DHT22;2265;48.794;9.520;2023-02-28T00:50:32;0.20;98.00
4505;DHT22;2265;48.794;9.520;2023-02-28T00:53:00;0.20;98.00
4505;DHT22;2265;48.794;9.520;2023-02-28T00:55:27;0.10;98.00
4505;DHT22;2265;48.794;9.520;2023-02-28T00:57:54;0.10;98.00
4505;DHT22;2265;48.794;9.520;2023-02-28T01:00:21;-0.10;98.00
4505;DHT22;2265;48.794;9.520;2023-02-28T01:02:49;0.00;98.00
4505;DHT22;2265;48.794;9.520;2023-02-28T01:05:17;0.00;98.00
4505;DHT22;2265;48.794;9.520;2023-02-28T01:07:44;0.00;98.00
4505;DHT22;2265;48.794;9.520;2023-02-28T01:10:11;0.10;98.00
4505;DHT22;2265;48.794;9.520;2023-02-28T01:12:38;0.00;98.00
4505;DHT22;2265;48.794;9.520;2023-02-28T01:15:06;0.00;98.00
4505;DHT22;2265;48.794;9.520;2023-02-28T01:17:33;0.00;98.00
4505;DHT22;2265;48.794;9.520;2023-02-28T01:20:02;-0.10;98.00
4505;DHT22;2265;48.794;9.520;2023-02-28T01:22:29;-0.10;98.00
4505;DHT22;2265;48.794;9.520;2023-02-28T01:24:56;0.00;98.00
4505;DHT22;2265;48.794;9.520;2023-02-28T01:27:23;0.10;98.00
4505;DHT22;2265;48.794;9.520;2023-02-28T01:29:52;0.10;98.00
4505;DHT22;2265;48.794;9.520;2023-02-28T01:32:19;0.00;98.00
4505;DHT22;2265;48.794;9.520;2023-02-28T01:34:46;-0.10;98.00
4505;DHT22;2265;48.794;9.520;2023-02-28T01:37:14;-0.20;98.00
4505;DHT22;2265;48.794;9.520;2023-02-28T01:39:41;-0.10;98.00
4505;DHT22;2265;48.794;9.520;2023-02-28T01:42:09;-0.10;98.00
4505;DHT22;2265;48.794;9.520;2023-02-28T01:45:03;-0.10;98.00
4505;DHT22;2265;48.794;9.520;2023-02-28T01:47:34;-0.20;98.00
4505;DHT22;2265;48.794;9.520;2023-02-28T01:50:04;-0.20;98.00
4505;DHT22;2265;48.794;9.520;2023-02-28T01:52:34;-0.10;98.00
4505;DHT22;2265;48.794;9.520;2023-02-28T01:55:04;-0.10;98.00
4505;DHT22;2265;48.794;9.520;2023-02-28T01:57:36;-0.20;98.00
4505;DHT22;2265;48.794;9.520;2023-02-28T02:00:12;-0.20;98.00
4505;DHT22;2265;48.794;9.520;2023-02-28T02:02:42;-0.20;98.00
4505;DHT22;2265;48.794;9.520;2023-02-28T02:05:15;-0.30;98.00
4505;DHT22;2265;48.794;9.520;2023-02-28T02:07:46;-0.20;98.00
4505;DHT22;2265;48.794;9.520;2023-02-28T02:10:15;-0.20;98.00
4505;DHT22;2265;48.794;9.520;2023-02-28T02:12:55;-0.30;98.00
4505;DHT22;2265;48.794;9.520;2023-02-28T02:15:31;-0.30;98.00
4505;DHT22;2265;48.794;9.520;2023-02-28T02:18:04;-0.30;98.00
4505;DHT22;2265;48.794;9.520;2023-02-28T02:20:51;-0.30;98.00
4505;DHT22;2265;48.794;9.520;2023-02-28T02:24:03;-0.30;98.00
4505;DHT22;2265;48.794;9.520;2023-02-28T02:27:20;-0.30;98.00
4505;DHT22;2265;48.794;9.520;2023-02-28T02:33:02;-0.30;98.00
4505;DHT22;2265;48.794;9.520;2023-02-28T02:35:40;-0.30;98.00
4505;DHT22;2265;48.794;9.520;2023-02-28T02:38:15;-0.20;98.00
4505;DHT22;2265;48.794;9.520;2023-02-28T02:40:53;-0.20;98.00
4505;DHT22;2265;48.794;9.520;2023-02-28T02:43:26;-0.20;98.00
4505;DHT22;2265;48.794;9.520;2023-02-28T02:46:01;-0.30;98.00
4505;DHT22;2265;48.794;9.520;2023-02-28T02:48:34;-0.30;98.00
4505;DHT22;2265;48.794;9.520;2023-02-28T02:51:07;-0.20;98.00
4505;DHT22;2265;48.794;9.520;2023-02-28T02:53:42;-0.20;98.00
4505;DHT22;2265;48.794;9.520;2023-02-28T02:56:12;0.00;98.00
4505;DHT22;2265;48.794;9.520;2023-02-28T02:58:42;-0.10;98.00
4505;DHT22;2265;48.794;9.520;2023-02-28T03:01:14;-0.20;98.00
4505;DHT22;2265;48.794;9.520;2023-02-28T03:03:41;-0.20;98.00
4505;DHT22;2265;48.794;9.520;2023-02-28T03:06:10;-0.10;98.00
4505;DHT22;2265;48.794;9.520;2023-02-28T03:08:38;-0.20;98.00
4505;DHT22;2265;48.794;9.520;2023-02-28T03:11:06;-0.30;98.00
4505;DHT22;2265;48.794;9.520;2023-02-28T03:13:50;-0.30;98.00
4505;DHT22;2265;48.794;9.520;2023-02-28T03:16:33;-0.40;98.00
4505;DHT22;2265;48.794;9.520;2023-02-28T03:19:17;-0.30;98.00
4505;DHT22;2265;48.794;9.520;2023-02-28T03:24:52;-0.20;98.00
4505;DHT22;2265;48.794;9.520;2023-02-28T03:27:26;-0.20;98.00
4505;DHT22;2265;48.794;9.520;2023-02-28T03:30:00;-0.10;98.00
4505;DHT22;2265;48.794;9.520;2023-02-28T03:32:29;-0.10;98.00
4505;DHT22;2265;48.794;9.520;2023-02-28T03:35:03;0.00;98.00
4505;DHT22;2265;48.794;9.520;2023-02-28T03:37:44;0.00;98.00
4505;DHT22;2265;48.794;9.520;2023-02-28T03:40:14;0.00;98.00
4505;DHT22;2265;48.794;9.520;2023-02-28T03:42:45;0.10;98.00
4505;DHT22;2265;48.794;9.520;2023-02-28T03:45:18;0.00;98.00
4505;DHT22;2265;48.794;9.520;2023-02-28T03:47:51;0.10;98.00
4505;DHT22;2265;48.794;9.520;2023-02-28T03:50:22;0.10;98.00
4505;DHT22;2265;48.794;9.520;2023-02-28T03:52:57;0.10;98.00
4505;DHT22;2265;48.794;9.520;2023-02-28T03:55:30;0.00;98.00
4505;DHT22;2265;48.794;9.520;2023-02-28T03:58:03;0.00;98.00
4505;DHT22;2265;48.794;9.520;2023-02-28T04:00:35;0.10;98.00
4505;DHT22;2265;48.794;9.520;2023-02-28T04:03:03;0.20;98.00
4505;DHT22;2265;48.794;9.520;2023-02-28T04:05:31;0.20;98.00
4505;DHT22;2265;48.794;9.520;2023-02-28T04:08:05;0.20;98.00
4505;DHT22;2265;48.794;9.520;2023-02-28T04:10:33;0.30;98.00
4505;DHT22;2265;48.794;9.520;2023-02-28T04:13:00;0.20;98.00
4505;DHT22;2265;48.794;9.520;2023-02-28T04:15:27;0.20;98.00
4505;DHT22;2265;48.794;9.520;2023-02-28T04:17:54;0.20;98.00
4505;DHT22;2265;48.794;9.520;2023-02-28T04:20:21;0.20;98.00
4505;DHT22;2265;48.794;9.520;2023-02-28T04:22:49;0.20;98.00
4505;DHT22;2265;48.794;9.520;2023-02-28T04:25:17;0.10;98.00
4505;DHT22;2265;48.794;9.520;2023-02-28T04:27:44;0.10;98.00
4505;DHT22;2265;48.794;9.520;2023-02-28T04:30:12;0.00;98.00
4505;DHT22;2265;48.794;9.520;2023-02-28T04:32:39;0.00;98.00
4505;DHT22;2265;48.794;9.520;2023-02-28T04:35:07;-0.10;98.00
4505;DHT22;2265;48.794;9.520;2023-02-28T04:37:35;-0.10;98.00
4505;DHT22;2265;48.794;9.520;2023-02-28T04:40:03;-0.10;98.00
4505;DHT22;2265;48.794;9.520;2023-02-28T04:42:31;-0.10;98.00
4505;DHT22;2265;48.794;9.520;2023-02-28T04:45:01;0.00;98.00
4505;DHT22;2265;48.794;9.520;2023-02-28T04:47:28;0.10;98.00
4505;DHT22;2265;48.794;9.520;2023-02-28T04:49:55;0.00;98.00
4505;DHT22;2265;48.794;9.520;2023-02-28T04:52:23;0.00;98.00
4505;DHT22;2265;48.794;9.520;2023-02-28T04:54:50;0.00;98.00
4505;DHT22;2265;48.794;9.520;2023-02-28T04:57:17;0.00;98.00
4505;DHT22;2265;48.794;9.520;2023-02-28T04:59:45;0.00;98.00
4505;DHT22;2265;48.794;9.520;2023-02-28T05:02:12;0.10;98.00
4505;DHT22;2265;48.794;9.520;2023-02-28T05:04:39;0.20;98.00
4505;DHT22;2265;48.794;9.520;2023-02-28T05:07:07;0.20;98.00
4505;DHT22;2265;48.794;9.520;2023-02-28T05:09:35;0.30;98.00
4505;DHT22;2265;48.794;9.520;2023-02-28T05:12:02;0.30;98.00
4505;DHT22;2265;48.794;9.520;2023-02-28T05:14:29;0.30;98.00
4505;DHT22;2265;48.794;9.520;2023-02-28T05:16:57;0.30;98.00
4505;DHT22;2265;48.794;9.520;2023-02-28T05:19:24;0.30;98.00
4505;DHT22;2265;48.794;9.520;2023-02-28T05:21:53;0.30;98.00
4505;DHT22;2265;48.794;9.520;2023-02-28T05:24:20;0.30;98.00
4505;DHT22;2265;48.794;9.520;2023-02-28T05:26:50;0.40;98.00
4505;DHT22;2265;48.794;9.520;2023-02-28T05:29:21;0.30;98.00
4505;DHT22;2265;48.794;9.520;2023-02-28T05:31:48;0.30;98.00
4505;DHT22;2265;48.794;9.520;2023-02-28T05:34:17;0.20;98.00
4505;DHT22;2265;48.794;9.520;2023-02-28T05:36:44;0.30;98.00
4505;DHT22;2265;48.794;9.520;2023-02-28T05:39:11;0.40;98.00
4505;DHT22;2265;48.794;9.520;2023-02-28T05:41:40;0.40;98.00
4505;DHT22;2265;48.794;9.520;2023-02-28T05:44:07;0.30;98.00
4505;DHT22;2265;48.794;9.520;2023-02-28T05:46:34;0.30;98.00
4505;DHT22;2265;48.794;9.520;2023-02-28T05:49:01;0.40;98.00
4505;DHT22;2265;48.794;9.520;2023-02-28T05:51:30;0.50;98.00
4505;DHT22;2265;48.794;9.520;2023-02-28T05:53:59;0.40;98.00
4505;DHT22;2265;48.794;9.520;2023-02-28T05:56:27;0.40;98.00
4505;DHT22;2265;48.794;9.520;2023-02-28T05:58:54;0.50;98.00
4505;DHT22;2265;48.794;9.520;2023-02-28T06:01:33;0.50;98.00
4505;DHT22;2265;48.794;9.520;2023-02-28T06:04:01;0.60;98.00
4505;DHT22;2265;48.794;9.520;2023-02-28T06:06:30;0.50;98.00
4505;DHT22;2265;48.794;9.520;2023-02-28T06:08:59;0.60;98.00
4505;DHT22;2265;48.794;9.520;2023-02-28T06:11:26;0.60;98.00
4505;DHT22;2265;48.794;9.520;2023-02-28T06:13:54;0.60;98.00
4505;DHT22;2265;48.794;9.520;2023-02-28T06:16:23;0.50;98.00
4505;DHT22;2265;48.794;9.520;2023-02-28T06:18:50;0.40;98.00
4505;DHT22;2265;48.794;9.520;2023-02-28T06:21:18;0.50;98.00
4505;DHT22;2265;48.794;9.520;2023-02-28T06:23:47;0.50;98.00
4505;DHT22;2265;48.794;9.520;2023-02-28T06:26:14;0.50;98.00
4505;DHT22;2265;48.794;9.520;2023-02-28T06:28:41;0.60;98.00
4505;DHT22;2265;48.794;9.520;2023-02-28T06:31:09;0.70;98.00
4505;DHT22;2265;48.794;9.520;2023-02-28T06:33:37;0.70;98.00
4505;DHT22;2265;48.794;9.520;2023-02-28T06:36:05;0.60;98.00
4505;DHT22;2265;48.794;9.520;2023-02-28T06:38:33;0.50;98.00
4505;DHT22;2265;48.794;9.520;2023-02-28T06:41:02;0.50;98.00
4505;DHT22;2265;48.794;9.520;2023-02-28T06:43:32;0.60;98.00
4505;DHT22;2265;48.794;9.520;2023-02-28T06:46:01;0.50;98.00
4505;DHT22;2265;48.794;9.520;2023-02-28T06:48:28;0.50;98.00
4505;DHT22;2265;48.794;9.520;2023-02-28T06:51:02;0.50;98.00
4505;DHT22;2265;48.794;9.520;2023-02-28T06:53:30;0.60;98.00
4505;DHT22;2265;48.794;9.520;2023-02-28T06:55:58;0.60;98.00
4505;DHT22;2265;48.794;9.520;2023-02-28T06:58:26;0.60;98.00
4505;DHT22;2265;48.794;9.520;2023-02-28T07:00:53;0.60;98.00
4505;DHT22;2265;48.794;9.520;2023-02-28T07:03:21;0.70;98.00
4505;DHT22;2265;48.794;9.520;2023-02-28T07:05:49;0.60;98.00
4505;DHT22;2265;48.794;9.520;2023-02-28T07:08:16;0.60;98.00
4505;DHT22;2265;48.794;9.520;2023-02-28T07:10:43;0.60;98.00
4505;DHT22;2265;48.794;9.520;2023-02-28T07:13:11;0.60;98.00
4505;DHT22;2265;48.794;9.520;2023-02-28T07:15:39;0.70;98.00
4505;DHT22;2265;48.794;9.520;2023-02-28T07:18:09;0.80;98.00
4505;DHT22;2265;48.794;9.520;2023-02-28T07:20:36;0.80;98.00
4505;DHT22;2265;48.794;9.520;2023-02-28T07:23:03;0.80;98.00
4505;DHT22;2265;48.794;9.520;2023-02-28T07:25:30;0.80;98.00
4505;DHT22;2265;48.794;9.520;2023-02-28T07:28:00;0.80;98.00
4505;DHT22;2265;48.794;9.520;2023-02-28T07:30:28;0.80;98.00
4505;DHT22;2265;48.794;9.520;2023-02-28T07:32:56;0.90;98.00
4505;DHT22;2265;48.794;9.520;2023-02-28T07:35:26;0.90;98.00
4505;DHT22;2265;48.794;9.520;2023-02-28T07:37:54;1.00;98.00
4505;DHT22;2265;48.794;9.520;2023-02-28T07:40:21;1.00;98.00
4505;DHT22;2265;48.794;9.520;2023-02-28T07:42:48;1.00;98.00
4505;DHT22;2265;48.794;9.520;2023-02-28T07:45:15;1.10;98.00
4505;DHT22;2265;48.794;9.520;2023-02-28T07:47:43;1.00;98.00
4505;DHT22;2265;48.794;9.520;2023-02-28T07:50:14;1.10;98.00
4505;DHT22;2265;48.794;9.520;2023-02-28T07:52:41;1.00;98.00
4505;DHT22;2265;48.794;9.520;2023-02-28T07:55:09;1.10;98.00
4505;DHT22;2265;48.794;9.520;2023-02-28T07:57:39;1.00;98.00
4505;DHT22;2265;48.794;9.520;2023-02-28T08:00:09;1.10;98.00
4505;DHT22;2265;48.794;9.520;2023-02-28T08:02:38;1.10;98.00
4505;DHT22;2265;48.794;9.520;2023-02-28T08:05:06;1.10;98.00
4505;DHT22;2265;48.794;9.520;2023-02-28T08:07:35;1.20;98.00
4505;DHT22;2265;48.794;9.520;2023-02-28T08:10:02;1.20;98.00
4505;DHT22;2265;48.794;9.520;2023-02-28T08:12:31;1.20;98.00
4505;DHT22;2265;48.794;9.520;2023-02-28T08:14:59;1.20;98.00
4505;DHT22;2265;48.794;9.520;2023-02-28T08:17:26;1.30;98.00
4505;DHT22;2265;48.794;9.520;2023-02-28T08:19:54;1.30;98.00
4505;DHT22;2265;48.794;9.520;2023-02-28T08:22:21;1.30;98.00
4505;DHT22;2265;48.794;9.520;2023-02-28T08:24:49;1.20;98.00
4505;DHT22;2265;48.794;9.520;2023-02-28T08:27:16;1.20;98.00
4505;DHT22;2265;48.794;9.520;2023-02-28T08:29:44;1.30;98.00
4505;DHT22;2265;48.794;9.520;2023-02-28T08:32:11;1.20;98.00
4505;DHT22;2265;48.794;9.520;2023-02-28T08:34:39;1.20;98.00
4505;DHT22;2265;48.794;9.520;2023-02-28T08:37:09;1.20;98.00
4505;DHT22;2265;48.794;9.520;2023-02-28T08:39:38;1.30;98.00
4505;DHT22;2265;48.794;9.520;2023-02-28T08:42:06;1.30;98.00
4505;DHT22;2265;48.794;9.520;2023-02-28T08:44:34;1.40;98.00
4505;DHT22;2265;48.794;9.520;2023-02-28T08:47:04;1.50;98.00
4505;DHT22;2265;48.794;9.520;2023-02-28T08:49:31;1.50;98.00
4505;DHT22;2265;48.794;9.520;2023-02-28T08:51:58;1.70;98.00
4505;DHT22;2265;48.794;9.520;2023-02-28T08:54:25;1.70;98.00
4505;DHT22;2265;48.794;9.520;2023-02-28T08:56:57;1.70;98.00
4505;DHT22;2265;48.794;9.520;2023-02-28T08:59:25;1.70;98.00
4505;DHT22;2265;48.794;9.520;2023-02-28T09:01:52;1.70;98.00
4505;DHT22;2265;48.794;9.520;2023-02-28T09:04:19;1.80;98.00
4505;DHT22;2265;48.794;9.520;2023-02-28T09:06:46;1.80;98.00
4505;DHT22;2265;48.794;9.520;2023-02-28T09:09:14;1.90;98.00
4505;DHT22;2265;48.794;9.520;2023-02-28T09:11:41;2.10;98.00
4505;DHT22;2265;48.794;9.520;2023-02-28T09:14:08;2.10;98.00
4505;DHT22;2265;48.794;9.520;2023-02-28T09:16:36;2.20;98.00
4505;DHT22;2265;48.794;9.520;2023-02-28T09:19:04;2.20;98.00
4505;DHT22;2265;48.794;9.520;2023-02-28T09:21:31;2.20;98.00
4505;DHT22;2265;48.794;9.520;2023-02-28T09:23:59;2.20;98.00
4505;DHT22;2265;48.794;9.520;2023-02-28T09:26:27;2.30;98.00
4505;DHT22;2265;48.794;9.520;2023-02-28T09:28:55;2.40;98.00
4505;DHT22;2265;48.794;9.520;2023-02-28T09:31:27;2.40;98.00
4505;DHT22;2265;48.794;9.520;2023-02-28T09:33:57;2.50;98.00
4505;DHT22;2265;48.794;9.520;2023-02-28T09:36:26;2.50;98.00
4505;DHT22;2265;48.794;9.520;2023-02-28T09:38:53;2.50;98.00
4505;DHT22;2265;48.794;9.520;2023-02-28T09:41:23;2.70;98.00
4505;DHT22;2265;48.794;9.520;2023-02-28T09:43:53;2.90;98.00
4505;DHT22;2265;48.794;9.520;2023-02-28T09:48:56;2.80;98.00
4505;DHT22;2265;48.794;9.520;2023-02-28T09:51:44;2.90;98.00
4505;DHT22;2265;48.794;9.520;2023-02-28T09:54:15;3.10;98.00
4505;DHT22;2265;48.794;9.520;2023-02-28T09:56:45;3.20;98.00
4505;DHT22;2265;48.794;9.520;2023-02-28T09:59:28;3.30;98.00
4505;DHT22;2265;48.794;9.520;2023-02-28T10:02:04;3.30;98.00
4505;DHT22;2265;48.794;9.520;2023-02-28T10:04:42;3.30;98.00
4505;DHT22;2265;48.794;9.520;2023-02-28T10:07:24;3.30;98.00
4505;DHT22;2265;48.794;9.520;2023-02-28T10:09:57;3.40;98.00
4505;DHT22;2265;48.794;9.520;2023-02-28T10:12:28;3.40;98.00
4505;DHT22;2265;48.794;9.520;2023-02-28T10:14:58;3.40;98.00
4505;DHT22;2265;48.794;9.520;2023-02-28T10:17:35;3.30;98.00
4505;DHT22;2265;48.794;9.520;2023-02-28T10:20:10;3.30;98.00
4505;DHT22;2265;48.794;9.520;2023-02-28T10:22:44;3.30;98.00
4505;DHT22;2265;48.794;9.520;2023-02-28T10:25:20;3.30;98.00
4505;DHT22;2265;48.794;9.520;2023-02-28T10:27:48;3.40;98.00
4505;DHT22;2265;48.794;9.520;2023-02-28T10:30:16;3.60;98.00
4505;DHT22;2265;48.794;9.520;2023-02-28T10:32:47;3.60;98.00
4505;DHT22;2265;48.794;9.520;2023-02-28T10:35:18;3.80;98.00
4505;DHT22;2265;48.794;9.520;2023-02-28T10:37:48;3.90;98.00
4505;DHT22;2265;48.794;9.520;2023-02-28T10:40:28;4.10;98.00
4505;DHT22;2265;48.794;9.520;2023-02-28T10:42:57;4.40;98.00
4505;DHT22;2265;48.794;9.520;2023-02-28T10:45:25;4.80;98.00
4505;DHT22;2265;48.794;9.520;2023-02-28T10:47:54;5.10;98.00
4505;DHT22;2265;48.794;9.520;2023-02-28T10:50:35;5.40;98.00
4505;DHT22;2265;48.794;9.520;2023-02-28T10:53:28;5.60;98.00
4505;DHT22;2265;48.794;9.520;2023-02-28T10:56:00;5.90;97.70
4505;DHT22;2265;48.794;9.520;2023-02-28T10:58:29;6.20;96.40
4505;DHT22;2265;48.794;9.520;2023-02-28T11:00:57;6.30;95.40
4505;DHT22;2265;48.794;9.520;2023-02-28T11:03:31;6.60;94.50
4505;DHT22;2265;48.794;9.520;2023-02-28T11:06:05;6.80;94.20
4505;DHT22;2265;48.794;9.520;2023-02-28T11:08:47;6.90;93.90
4505;DHT22;2265;48.794;9.520;2023-02-28T11:11:14;7.10;92.90
4505;DHT22;2265;48.794;9.520;2023-02-28T11:13:45;7.20;92.10
4505;DHT22;2265;48.794;9.520;2023-02-28T11:16:14;7.50;93.10
4505;DHT22;2265;48.794;9.520;2023-02-28T11:18:46;7.80;91.30
4505;DHT22;2265;48.794;9.520;2023-02-28T11:21:25;7.90;91.60
4505;DHT22;2265;48.794;9.520;2023-02-28T11:23:59;7.80;91.20
4505;DHT22;2265;48.794;9.520;2023-02-28T11:26:38;7.70;91.80
4505;DHT22;2265;48.794;9.520;2023-02-28T11:29:18;7.80;91.70
4505;DHT22;2265;48.794;9.520;2023-02-28T11:32:04;7.90;91.90
4505;DHT22;2265;48.794;9.520;2023-02-28T11:34:31;8.20;91.70
4505;DHT22;2265;48.794;9.520;2023-02-28T11:37:01;8.20;90.60
4505;DHT22;2265;48.794;9.520;2023-02-28T11:39:31;8.40;90.40
4505;DHT22;2265;48.794;9.520;2023-02-28T11:42:11;8.50;90.30
4505;DHT22;2265;48.794;9.520;2023-02-28T11:44:54;8.70;89.30
4505;DHT22;2265;48.794;9.520;2023-02-28T11:47:32;8.70;89.70
4505;DHT22;2265;48.794;9.520;2023-02-28T11:50:16;8.90;88.50
4505;DHT22;2265;48.794;9.520;2023-02-28T11:52:50;9.00;88.60
4505;DHT22;2265;48.794;9.520;2023-02-28T11:55:23;8.80;88.10
4505;DHT22;2265;48.794;9.520;2023-02-28T11:58:09;8.90;88.70
4505;DHT22;2265;48.794;9.520;2023-02-28T12:00:50;8.90;88.40
4505;DHT22;2265;48.794;9.520;2023-02-28T12:03:27;8.80;88.30
4505;DHT22;2265;48.794;9.520;2023-02-28T12:06:03;8.70;88.10
4505;DHT22;2265;48.794;9.520;2023-02-28T12:08:44;8.60;88.70
4505;DHT22;2265;48.794;9.520;2023-02-28T12:11:19;8.30;88.50
4505;DHT22;2265;48.794;9.520;2023-02-28T12:14:05;8.30;89.60
4505;DHT22;2265;48.794;9.520;2023-02-28T12:17:00;8.50;89.20
4505;DHT22;2265;48.794;9.520;2023-02-28T12:19:35;8.70;88.50
4505;DHT22;2265;48.794;9.520;2023-02-28T12:22:26;9.00;87.60
4505;DHT22;2265;48.794;9.520;2023-02-28T12:27:55;9.60;86.90
4505;DHT22;2265;48.794;9.520;2023-02-28T12:30:26;10.00;85.80
4505;DHT22;2265;48.794;9.520;2023-02-28T12:32:56;10.20;84.80
4505;DHT22;2265;48.794;9.520;2023-02-28T12:35:28;10.30;84.60
4505;DHT22;2265;48.794;9.520;2023-02-28T12:38:03;10.50;84.70
4505;DHT22;2265;48.794;9.520;2023-02-28T12:40:40;10.60;83.00
4505;DHT22;2265;48.794;9.520;2023-02-28T12:43:10;10.40;84.10
4505;DHT22;2265;48.794;9.520;2023-02-28T12:45:41;10.70;83.70
4505;DHT22;2265;48.794;9.520;2023-02-28T12:48:14;10.90;83.90
4505;DHT22;2265;48.794;9.520;2023-02-28T12:50:42;11.00;82.40
4505;DHT22;2265;48.794;9.520;2023-02-28T12:53:15;11.00;82.60
4505;DHT22;2265;48.794;9.520;2023-02-28T12:55:49;11.00;82.20
4505;DHT22;2265;48.794;9.520;2023-02-28T12:58:30;10.90;82.50
4505;DHT22;2265;48.794;9.520;2023-02-28T13:01:26;10.70;82.90
4505;DHT22;2265;48.794;9.520;2023-02-28T13:04:19;10.80;83.00
4505;DHT22;2265;48.794;9.520;2023-02-28T13:07:05;11.00;82.50
4505;DHT22;2265;48.794;9.520;2023-02-28T13:09:34;11.00;82.00
4505;DHT22;2265;48.794;9.520;2023-02-28T13:12:12;11.10;82.50
4505;DHT22;2265;48.794;9.520;2023-02-28T13:14:42;11.40;81.70
4505;DHT22;2265;48.794;9.520;2023-02-28T13:17:15;11.70;81.10
4505;DHT22;2265;48.794;9.520;2023-02-28T13:19:46;11.90;80.20
4505;DHT22;2265;48.794;9.520;2023-02-28T13:22:38;12.00;79.70
4505;DHT22;2265;48.794;9.520;2023-02-28T13:25:50;12.20;80.10
4505;DHT22;2265;48.794;9.520;2023-02-28T13:34:39;12.30;78.80
4505;DHT22;2265;48.794;9.520;2023-02-28T13:37:41;12.30;78.80
4505;DHT22;2265;48.794;9.520;2023-02-28T13:40:30;12.20;78.50
4505;DHT22;2265;48.794;9.520;2023-02-28T13:43:02;12.10;78.90
4505;DHT22;2265;48.794;9.520;2023-02-28T13:45:30;11.90;78.90
4505;DHT22;2265;48.794;9.520;2023-02-28T13:48:15;11.80;79.60
4505;DHT22;2265;48.794;9.520;2023-02-28T13:50:43;11.70;78.90
4505;DHT22;2265;48.794;9.520;2023-02-28T13:53:29;11.60;79.20
4505;DHT22;2265;48.794;9.520;2023-02-28T13:56:07;11.50;80.00
4505;DHT22;2265;48.794;9.520;2023-02-28T13:58:48;11.50;79.50
4505;DHT22;2265;48.794;9.520;2023-02-28T14:01:31;11.60;80.30
4505;DHT22;2265;48.794;9.520;2023-02-28T14:04:32;11.60;80.10
4505;DHT22;2265;48.794;9.520;2023-02-28T14:07:05;11.50;80.20
4505;DHT22;2265;48.794;9.520;2023-02-28T14:09:35;11.40;80.20
4505;DHT22;2265;48.794;9.520;2023-02-28T14:15:03;11.50;79.80
4505;DHT22;2265;48.794;9.520;2023-02-28T14:17:32;11.60;79.60
4505;DHT22;2265;48.794;9.520;2023-02-28T14:20:03;11.60;79.70
4505;DHT22;2265;48.794;9.520;2023-02-28T14:22:45;11.80;79.30
4505;DHT22;2265;48.794;9.520;2023-02-28T14:25:21;11.90;78.80
4505;DHT22;2265;48.794;9.520;2023-02-28T14:28:02;12.10;78.50
4505;DHT22;2265;48.794;9.520;2023-02-28T14:30:56;12.30;78.20
4505;DHT22;2265;48.794;9.520;2023-02-28T14:33:31;12.30;78.60
4505;DHT22;2265;48.794;9.520;2023-02-28T14:36:12;12.40;78.10
4505;DHT22;2265;48.794;9.520;2023-02-28T14:38:44;12.40;77.90
4505;DHT22;2265;48.794;9.520;2023-02-28T14:41:20;12.20;78.00
4505;DHT22;2265;48.794;9.520;2023-02-28T14:43:51;12.00;78.90
4505;DHT22;2265;48.794;9.520;2023-02-28T14:46:18;12.00;78.40
4505;DHT22;2265;48.794;9.520;2023-02-28T14:48:46;12.20;78.30
4505;DHT22;2265;48.794;9.520;2023-02-28T14:51:20;12.10;77.80
4505;DHT22;2265;48.794;9.520;2023-02-28T14:53:50;12.20;78.80
4505;DHT22;2265;48.794;9.520;2023-02-28T14:56:23;12.20;78.80
4505;DHT22;2265;48.794;9.520;2023-02-28T14:58:53;12.00;78.80
4505;DHT22;2265;48.794;9.520;2023-02-28T15:01:23;11.90;79.10
4505;DHT22;2265;48.794;9.520;2023-02-28T15:03:58;11.70;78.90
4505;DHT22;2265;48.794;9.520;2023-02-28T15:06:28;11.50;79.10
4505;DHT22;2265;48.794;9.520;2023-02-28T15:09:10;11.30;79.60
4505;DHT22;2265;48.794;9.520;2023-02-28T15:11:40;11.40;79.90
4505;DHT22;2265;48.794;9.520;2023-02-28T15:14:12;11.50;79.90
4505;DHT22;2265;48.794;9.520;2023-02-28T15:16:42;11.60;80.20
4505;DHT22;2265;48.794;9.520;2023-02-28T15:19:14;11.80;79.50
4505;DHT22;2265;48.794;9.520;2023-02-28T15:21:44;12.10;79.70
4505;DHT22;2265;48.794;9.520;2023-02-28T15:24:16;12.50;79.60
4505;DHT22;2265;48.794;9.520;2023-02-28T15:26:53;12.80;78.30
4505;DHT22;2265;48.794;9.520;2023-02-28T15:29:23;13.00;77.80
4505;DHT22;2265;48.794;9.520;2023-02-28T15:31:55;13.00;77.50
4505;DHT22;2265;48.794;9.520;2023-02-28T15:34:27;12.80;77.00
4505;DHT22;2265;48.794;9.520;2023-02-28T15:36:57;12.40;77.60
4505;DHT22;2265;48.794;9.520;2023-02-28T15:39:26;12.10;78.40
4505;DHT22;2265;48.794;9.520;2023-02-28T15:42:11;11.70;79.10
4505;DHT22;2265;48.794;9.520;2023-02-28T15:44:39;11.60;79.70
4505;DHT22;2265;48.794;9.520;2023-02-28T15:47:14;11.50;79.20
4505;DHT22;2265;48.794;9.520;2023-02-28T15:49:47;11.50;80.00
4505;DHT22;2265;48.794;9.520;2023-02-28T15:52:19;11.50;80.00
4505;DHT22;2265;48.794;9.520;2023-02-28T15:54:48;11.40;80.00
4505;DHT22;2265;48.794;9.520;2023-02-28T15:57:20;11.20;79.50
4505;DHT22;2265;48.794;9.520;2023-02-28T15:59:51;11.10;80.20
4505;DHT22;2265;48.794;9.520;2023-02-28T16:02:21;10.70;80.90
4505;DHT22;2265;48.794;9.520;2023-02-28T16:04:58;10.50;81.80
4505;DHT22;2265;48.794;9.520;2023-02-28T16:07:27;10.30;82.30
4505;DHT22;2265;48.794;9.520;2023-02-28T16:09:54;10.20;82.70
4505;DHT22;2265;48.794;9.520;2023-02-28T16:12:26;10.00;83.20
4505;DHT22;2265;48.794;9.520;2023-02-28T16:14:56;9.80;83.00
4505;DHT22;2265;48.794;9.520;2023-02-28T16:17:28;9.70;83.60
4505;DHT22;2265;48.794;9.520;2023-02-28T16:19:57;9.70;83.80
4505;DHT22;2265;48.794;9.520;2023-02-28T16:22:24;9.80;83.80
4505;DHT22;2265;48.794;9.520;2023-02-28T16:24:53;9.90;83.50
4505;DHT22;2265;48.794;9.520;2023-02-28T16:27:23;9.90;83.30
4505;DHT22;2265;48.794;9.520;2023-02-28T16:29:51;9.50;83.90
4505;DHT22;2265;48.794;9.520;2023-02-28T16:32:19;9.20;84.40
4505;DHT22;2265;48.794;9.520;2023-02-28T16:34:46;9.10;84.70
4505;DHT22;2265;48.794;9.520;2023-02-28T16:37:14;8.80;85.30
4505;DHT22;2265;48.794;9.520;2023-02-28T16:39:42;8.80;85.80
4505;DHT22;2265;48.794;9.520;2023-02-28T16:42:20;8.70;86.00
4505;DHT22;2265;48.794;9.520;2023-02-28T16:44:49;8.60;86.30
4505;DHT22;2265;48.794;9.520;2023-02-28T16:47:16;8.70;86.40
4505;DHT22;2265;48.794;9.520;2023-02-28T16:49:43;8.40;86.80
4505;DHT22;2265;48.794;9.520;2023-02-28T16:52:10;7.80;88.10
4505;DHT22;2265;48.794;9.520;2023-02-28T16:54:37;7.50;89.30
4505;DHT22;2265;48.794;9.520;2023-02-28T16:57:05;7.20;89.90
4505;DHT22;2265;48.794;9.520;2023-02-28T16:59:33;6.90;91.30
4505;DHT22;2265;48.794;9.520;2023-02-28T17:02:00;6.50;91.60